createdAt,value
2023-04-17T00:01:08.650Z,6.20
2023-04-17T00:04:15.648Z,6.13
2023-04-17T00:07:22.960Z,6.07
2023-04-17T00:10:42.349Z,6.06
2023-04-17T00:13:48.384Z,6.00
2023-04-17T00:16:55.949Z,5.97
2023-04-17T00:20:06.615Z,5.94
2023-04-17T00:23:13.459Z,5.89
2023-04-17T00:26:22.117Z,5.87
2023-04-17T00:29:28.821Z,5.84
2023-04-17T00:32:34.845Z,5.80
2023-04-17T00:35:41.854Z,5.79
2023-04-17T00:38:47.990Z,5.74
2023-04-17T00:41:59.049Z,5.71
2023-04-17T00:45:05.830Z,5.67
2023-04-17T00:48:14.035Z,5.62
2023-04-17T00:51:20.404Z,5.64
2023-04-17T00:54:28.954Z,5.61
2023-04-17T00:57:38.120Z,5.56
2023-04-17T01:00:44.910Z,5.53
2023-04-17T01:03:52.287Z,5.48
2023-04-17T01:06:59.787Z,5.44
2023-04-17T01:10:07.549Z,5.40
2023-04-17T01:13:20.949Z,5.40
2023-04-17T01:16:28.011Z,5.35
2023-04-17T01:19:35.659Z,5.38
2023-04-17T01:22:42.441Z,5.42
2023-04-17T01:25:51.543Z,5.38
2023-04-17T01:29:01.987Z,5.44
2023-04-17T01:32:10.603Z,5.50
2023-04-17T01:35:17.845Z,5.47
2023-04-17T01:38:23.709Z,5.44
2023-04-17T01:41:33.119Z,5.43
2023-04-17T01:44:39.345Z,5.38
2023-04-17T01:47:46.466Z,5.42
2023-04-17T01:50:52.479Z,5.39
2023-04-17T01:53:59.395Z,5.34
2023-04-17T01:57:08.062Z,5.29
2023-04-17T02:00:17.292Z,5.26
2023-04-17T02:03:24.855Z,5.22
2023-04-17T02:06:32.340Z,5.17
2023-04-17T02:09:39.033Z,5.13
2023-04-17T02:12:50.241Z,5.09
2023-04-17T02:15:57.442Z,5.08
2023-04-17T02:19:09.248Z,5.03
2023-04-17T02:22:15.251Z,4.97
2023-04-17T02:25:22.101Z,4.96
2023-04-17T02:28:30.588Z,4.95
2023-04-17T02:31:44.216Z,4.89
2023-04-17T02:34:50.753Z,4.90
2023-04-17T02:37:58.163Z,4.88
2023-04-17T02:41:05.439Z,4.86
2023-04-17T02:44:16.566Z,4.79
2023-04-17T02:47:24.949Z,4.77
2023-04-17T02:50:32.030Z,4.79
2023-04-17T02:53:46.338Z,4.73
2023-04-17T02:56:53.804Z,4.71
2023-04-17T03:00:02.626Z,4.66
2023-04-17T03:03:10.425Z,4.64
2023-04-17T03:06:16.647Z,4.60
2023-04-17T03:09:25.130Z,4.59
2023-04-17T03:12:31.292Z,4.63
2023-04-17T03:15:40.682Z,4.68
2023-04-17T03:18:46.744Z,4.69
2023-04-17T03:21:53.461Z,4.67
2023-04-17T03:24:59.466Z,4.72
2023-04-17T03:28:13.961Z,4.69
2023-04-17T03:31:24.536Z,4.59
2023-04-17T03:34:34.879Z,4.67
2023-04-17T03:37:41.092Z,4.79
2023-04-17T03:40:48.948Z,4.84
2023-04-17T03:43:54.892Z,4.85
2023-04-17T03:47:04.258Z,4.78
2023-04-17T03:50:11.972Z,4.79
2023-04-17T03:53:25.139Z,4.74
2023-04-17T03:56:32.555Z,4.65
2023-04-17T03:59:39.681Z,4.67
2023-04-17T04:02:49.737Z,4.67
2023-04-17T04:06:04.709Z,4.67
2023-04-17T04:09:10.989Z,4.61
2023-04-17T04:12:18.043Z,4.61
2023-04-17T04:15:25.632Z,4.54
2023-04-17T04:18:41.283Z,4.56
2023-04-17T04:21:47.656Z,4.59
2023-04-17T04:24:55.776Z,4.59
2023-04-17T04:28:13.638Z,4.63
2023-04-17T04:31:21.648Z,4.60
2023-04-17T04:34:30.405Z,4.70
2023-04-17T04:37:37.190Z,4.85
2023-04-17T04:40:52.784Z,4.92
2023-04-17T04:44:00.705Z,5.02
2023-04-17T04:47:20.480Z,5.22
2023-04-17T04:50:32.138Z,5.26
2023-04-17T04:53:38.119Z,5.39
2023-04-17T04:56:46.564Z,5.66
2023-04-17T04:59:54.748Z,5.68
2023-04-17T05:03:13.135Z,5.71
2023-04-17T05:06:22.634Z,5.75
2023-04-17T05:09:49.292Z,5.95
2023-04-17T05:13:05.137Z,5.93
2023-04-17T05:16:12.381Z,5.92
2023-04-17T05:19:20.641Z,6.12
2023-04-17T05:22:39.825Z,6.32
2023-04-17T05:25:49.754Z,6.51
2023-04-17T05:28:57.108Z,6.77
2023-04-17T05:32:08.096Z,7.12
2023-04-17T05:35:50.377Z,7.60
2023-04-17T05:38:59.968Z,7.92
2023-04-17T05:42:07.264Z,7.99
2023-04-17T05:45:16.669Z,7.85
2023-04-17T05:48:23.620Z,7.76
2023-04-17T05:51:31.121Z,7.99
2023-04-17T05:54:40.918Z,7.89
2023-04-17T05:57:50.146Z,7.89
2023-04-17T06:00:57.278Z,8.37
2023-04-17T06:04:05.255Z,8.76
2023-04-17T06:07:12.737Z,8.87
2023-04-17T06:10:21.500Z,9.22
2023-04-17T06:13:28.442Z,9.74
2023-04-17T06:16:35.620Z,10.51
2023-04-17T06:19:42.783Z,11.00
2023-04-17T06:22:49.960Z,11.47
2023-04-17T06:25:59.850Z,11.50
2023-04-17T06:29:05.887Z,11.80
2023-04-17T06:32:14.266Z,11.57
2023-04-17T06:35:20.275Z,11.27
2023-04-17T06:38:36.861Z,11.20
2023-04-17T06:41:45.591Z,11.73
2023-04-17T06:44:52.740Z,12.42
2023-04-17T06:47:58.836Z,13.06
2023-04-17T06:51:05.804Z,13.56
2023-04-17T06:54:12.326Z,13.80
2023-04-17T06:57:22.423Z,14.85
2023-04-17T07:00:29.905Z,15.38
2023-04-17T07:03:39.672Z,15.06
2023-04-17T07:06:52.355Z,15.33
2023-04-17T07:10:03.642Z,14.83
2023-04-17T07:13:12.580Z,14.22
2023-04-17T07:16:21.657Z,13.47
2023-04-17T07:19:31.071Z,14.12
2023-04-17T07:22:37.957Z,14.24
2023-04-17T07:25:50.372Z,13.92
2023-04-17T07:28:59.663Z,13.47
2023-04-17T07:32:07.330Z,13.29
2023-04-17T07:35:14.158Z,13.38
2023-04-17T07:38:20.071Z,12.63
2023-04-17T07:41:26.812Z,12.23
2023-04-17T07:44:35.500Z,13.24
2023-04-17T07:47:47.561Z,14.33
2023-04-17T07:50:58.926Z,14.22
2023-04-17T07:54:05.656Z,14.79
2023-04-17T07:57:11.812Z,14.12
2023-04-17T08:00:22.285Z,14.00
2023-04-17T08:03:28.519Z,13.37
2023-04-17T08:06:39.627Z,13.05
2023-04-17T08:09:45.902Z,12.91
2023-04-17T08:12:55.112Z,12.48
2023-04-17T08:16:12.114Z,12.66
2023-04-17T08:19:20.588Z,12.56
2023-04-17T08:22:28.959Z,12.75
2023-04-17T08:25:42.401Z,13.63
2023-04-17T08:28:48.272Z,14.25
2023-04-17T08:32:12.662Z,13.46
2023-04-17T08:35:20.964Z,13.53
2023-04-17T08:38:54.103Z,13.50
2023-04-17T08:42:05.876Z,13.62
2023-04-17T08:45:18.671Z,13.72
2023-04-17T08:48:28.270Z,14.24
2023-04-17T08:51:35.824Z,14.00
2023-04-17T08:54:41.786Z,13.83
2023-04-17T08:58:02.012Z,14.85
2023-04-17T09:01:13.545Z,14.72
2023-04-17T09:04:40.275Z,15.06
2023-04-17T09:07:50.552Z,14.67
2023-04-17T09:11:21.010Z,15.54
2023-04-17T09:14:35.778Z,14.72
2023-04-17T09:17:42.625Z,14.50
2023-04-17T09:20:57.987Z,14.60
2023-04-17T09:24:07.230Z,14.52
2023-04-17T09:27:29.385Z,14.19
2023-04-17T09:30:41.388Z,13.48
2023-04-17T09:34:00.706Z,13.84
2023-04-17T09:37:22.382Z,13.51
2023-04-17T09:40:46.361Z,13.33
2023-04-17T09:43:53.868Z,13.25
2023-04-17T09:47:01.586Z,13.03
2023-04-17T09:50:12.625Z,12.92
2023-04-17T09:53:23.552Z,12.92
2023-04-17T09:56:31.701Z,12.88
2023-04-17T09:59:44.424Z,13.43
2023-04-17T10:02:53.632Z,13.35
2023-04-17T10:06:00.870Z,13.50
2023-04-17T10:09:10.614Z,13.91
2023-04-17T10:12:21.940Z,13.93
2023-04-17T10:15:31.449Z,13.79
2023-04-17T10:18:37.584Z,13.69
2023-04-17T10:21:46.386Z,13.03
2023-04-17T10:25:17.696Z,12.85
2023-04-17T10:28:58.303Z,12.78
2023-04-17T10:32:29.260Z,12.96
2023-04-17T10:35:40.014Z,12.83
2023-04-17T10:38:49.937Z,12.42
2023-04-17T10:42:07.439Z,12.28
2023-04-17T10:45:25.036Z,12.27
2023-04-17T10:48:42.664Z,11.95
2023-04-17T10:51:49.810Z,11.79
2023-04-17T10:55:08.216Z,11.56
2023-04-17T10:58:16.724Z,11.55
2023-04-17T11:01:29.800Z,11.39
2023-04-17T11:04:36.830Z,11.49
2023-04-17T11:07:52.526Z,11.48
2023-04-17T11:11:00.068Z,11.16
2023-04-17T11:14:14.458Z,11.06
2023-04-17T11:17:25.166Z,10.93
2023-04-17T11:20:34.597Z,9.84
2023-04-17T11:23:40.465Z,9.37
2023-04-17T11:26:47.935Z,9.36
2023-04-17T11:29:53.953Z,9.41
2023-04-17T11:33:08.956Z,9.61
2023-04-17T11:36:20.530Z,9.85
2023-04-17T11:39:31.190Z,9.96
2023-04-17T11:42:37.495Z,10.00
2023-04-17T11:45:47.512Z,9.97
2023-04-17T11:48:57.344Z,9.75
2023-04-17T11:52:07.389Z,9.56
2023-04-17T11:55:13.733Z,9.35
2023-04-17T11:58:24.417Z,9.26
2023-04-17T12:01:32.066Z,9.17
2023-04-17T12:04:42.705Z,8.90
2023-04-17T12:07:48.816Z,8.63
2023-04-17T12:10:55.656Z,8.44
2023-04-17T12:14:08.477Z,8.41
2023-04-17T12:17:21.904Z,8.31
2023-04-17T12:20:30.482Z,8.43
2023-04-17T12:23:37.211Z,8.55
2023-04-17T12:26:49.477Z,8.59
2023-04-17T12:29:56.397Z,8.74
2023-04-17T12:33:02.258Z,8.77
2023-04-17T12:36:12.698Z,8.92
2023-04-17T12:39:18.835Z,9.00
2023-04-17T12:42:31.425Z,8.93
2023-04-17T12:45:44.123Z,8.91
2023-04-17T12:48:56.875Z,8.94
2023-04-17T12:52:05.357Z,8.92
2023-04-17T12:55:13.850Z,8.84
2023-04-17T12:58:19.700Z,8.71
2023-04-17T13:01:31.635Z,8.72
2023-04-17T13:04:37.544Z,8.71
2023-04-17T13:07:46.993Z,8.81
2023-04-17T13:10:56.553Z,8.84
2023-04-17T13:14:09.516Z,8.88
2023-04-17T13:17:18.962Z,9.00
2023-04-17T13:20:26.018Z,8.91
2023-04-17T13:23:34.616Z,9.09
2023-04-17T13:26:42.968Z,9.01
2023-04-17T13:29:49.406Z,9.06
2023-04-17T13:32:56.904Z,9.24
2023-04-17T13:36:03.540Z,9.28
2023-04-17T13:39:13.652Z,9.35
2023-04-17T13:42:22.352Z,9.27
2023-04-17T13:45:30.022Z,9.08
2023-04-17T13:48:36.032Z,9.10
2023-04-17T13:51:43.174Z,8.93
2023-04-17T13:54:52.505Z,8.82
2023-04-17T13:58:00.937Z,8.78
2023-04-17T14:01:07.383Z,8.72
2023-04-17T14:04:14.682Z,8.76
2023-04-17T14:07:21.259Z,8.79
2023-04-17T14:10:30.785Z,8.75
2023-04-17T14:13:36.699Z,8.71
2023-04-17T14:16:46.452Z,8.83
2023-04-17T14:19:52.812Z,8.93
2023-04-17T14:22:59.817Z,8.96
2023-04-17T14:26:08.708Z,8.91
2023-04-17T14:29:15.924Z,8.76
2023-04-17T14:32:22.032Z,8.85
2023-04-17T14:35:28.902Z,8.91
2023-04-17T14:38:35.363Z,8.98
2023-04-17T14:41:45.682Z,9.06
2023-04-17T14:44:52.167Z,9.09
2023-04-17T14:48:02.076Z,8.96
2023-04-17T14:51:12.740Z,9.00
2023-04-17T14:54:19.469Z,9.08
2023-04-17T14:57:28.249Z,9.13
2023-04-17T15:00:35.253Z,9.27
2023-04-17T15:03:43.112Z,9.43
2023-04-17T15:06:51.103Z,9.42
2023-04-17T15:09:56.977Z,9.44
2023-04-17T15:13:06.341Z,9.12
2023-04-17T15:16:13.368Z,8.93
2023-04-17T15:19:20.209Z,8.88
2023-04-17T15:22:26.181Z,8.82
2023-04-17T15:25:33.185Z,8.77
2023-04-17T15:28:43.455Z,8.71
2023-04-17T15:31:52.885Z,8.77
2023-04-17T15:34:58.996Z,8.52
2023-04-17T15:38:05.781Z,8.50
2023-04-17T15:41:11.662Z,8.30
2023-04-17T15:44:21.325Z,8.35
2023-04-17T15:47:31.187Z,8.32
2023-04-17T15:50:38.169Z,8.22
2023-04-17T15:53:46.421Z,8.23
2023-04-17T15:56:53.222Z,8.07
2023-04-17T16:00:02.126Z,7.96
2023-04-17T16:03:16.951Z,7.96
2023-04-17T16:06:23.180Z,7.92
2023-04-17T16:09:31.936Z,8.01
2023-04-17T16:12:41.556Z,7.90
2023-04-17T16:15:57.827Z,7.82
2023-04-17T16:19:03.902Z,7.96
2023-04-17T16:22:10.777Z,8.03
2023-04-17T16:25:17.803Z,8.01
2023-04-17T16:28:27.365Z,8.03
2023-04-17T16:31:36.466Z,7.82
2023-04-17T16:34:43.621Z,8.10
2023-04-17T16:37:54.309Z,7.82
2023-04-17T16:41:02.177Z,7.84
2023-04-17T16:44:08.664Z,7.84
2023-04-17T16:47:18.580Z,7.77
2023-04-17T16:50:25.779Z,7.84
2023-04-17T16:53:36.503Z,7.86
2023-04-17T16:56:43.269Z,7.77
2023-04-17T16:59:50.111Z,7.75
2023-04-17T17:02:58.854Z,7.65
2023-04-17T17:06:07.382Z,7.71
2023-04-17T17:09:15.812Z,7.74
2023-04-17T17:12:28.061Z,7.74
2023-04-17T17:15:38.840Z,7.73
2023-04-17T17:18:48.586Z,7.69
2023-04-17T17:21:55.474Z,7.72
2023-04-17T17:25:02.200Z,7.77
2023-04-17T17:28:13.984Z,7.75
2023-04-17T17:31:23.824Z,7.68
2023-04-17T17:34:36.813Z,7.56
2023-04-17T17:37:43.948Z,7.42
2023-04-17T17:40:52.035Z,7.33
2023-04-17T17:43:59.273Z,7.40
2023-04-17T17:47:07.739Z,7.41
2023-04-17T17:50:29.350Z,7.35
2023-04-17T17:53:39.310Z,7.42
2023-04-17T17:56:46.316Z,7.41
2023-04-17T17:59:52.332Z,7.41
2023-04-17T18:02:59.416Z,7.42
2023-04-17T18:06:10.885Z,7.36
2023-04-17T18:09:17.706Z,7.38
2023-04-17T18:12:23.718Z,7.40
2023-04-17T18:15:30.940Z,7.51
2023-04-17T18:18:45.336Z,7.34
2023-04-17T18:21:55.082Z,7.22
2023-04-17T18:25:01.069Z,7.21
2023-04-17T18:28:09.354Z,7.14
2023-04-17T18:31:15.583Z,7.16
2023-04-17T18:34:32.084Z,7.15
2023-04-17T18:37:43.544Z,7.25
2023-04-17T18:40:50.348Z,7.38
2023-04-17T18:43:56.409Z,7.41
2023-04-17T18:47:10.727Z,7.40
2023-04-17T18:50:29.616Z,7.25
2023-04-17T18:53:47.666Z,7.26
2023-04-17T18:56:59.428Z,7.15
2023-04-17T19:00:07.435Z,6.98
2023-04-17T19:03:13.601Z,6.97
2023-04-17T19:06:20.537Z,6.89
2023-04-17T19:09:29.286Z,6.86
2023-04-17T19:12:36.418Z,6.83
2023-04-17T19:15:42.953Z,6.80
2023-04-17T19:18:49.780Z,6.74
2023-04-17T19:21:55.829Z,6.69
2023-04-17T19:25:05.210Z,6.70
2023-04-17T19:28:11.751Z,6.68
2023-04-17T19:31:18.605Z,6.67
2023-04-17T19:34:24.709Z,6.64
2023-04-17T19:37:31.674Z,6.62
2023-04-17T19:40:40.298Z,6.62
2023-04-17T19:43:47.395Z,6.64
2023-04-17T19:46:54.071Z,6.54
2023-04-17T19:50:06.961Z,6.56
2023-04-17T19:53:12.922Z,6.64
2023-04-17T19:56:22.389Z,6.58
2023-04-17T19:59:28.381Z,6.57
2023-04-17T20:02:37.416Z,6.61
2023-04-17T20:05:43.419Z,6.72
2023-04-17T20:08:50.196Z,6.70
2023-04-17T20:11:58.927Z,6.66
2023-04-17T20:15:06.187Z,6.84
2023-04-17T20:18:14.551Z,6.71
2023-04-17T20:21:21.987Z,6.67
2023-04-17T20:24:28.135Z,6.79
2023-04-17T20:27:37.524Z,6.89
2023-04-17T20:30:43.504Z,6.92
2023-04-17T20:33:51.036Z,6.88
2023-04-17T20:36:56.983Z,6.85
2023-04-17T20:40:06.269Z,6.98
2023-04-17T20:43:14.805Z,6.86
2023-04-17T20:46:21.659Z,6.93
2023-04-17T20:49:27.672Z,6.84
2023-04-17T20:52:36.810Z,6.88
2023-04-17T20:55:42.898Z,6.81
2023-04-17T20:58:52.369Z,6.87
2023-04-17T21:02:00.565Z,6.77
2023-04-17T21:05:09.320Z,6.68
2023-04-17T21:08:15.363Z,6.58
2023-04-17T21:11:28.686Z,6.58
2023-04-17T21:14:40.023Z,6.54
2023-04-17T21:17:48.101Z,6.61
2023-04-17T21:20:54.403Z,6.63
2023-04-17T21:24:06.306Z,6.69
2023-04-17T21:27:12.408Z,6.62
2023-04-17T21:30:22.040Z,6.52
2023-04-17T21:33:27.896Z,6.56
2023-04-17T21:36:34.714Z,6.49
2023-04-17T21:39:40.485Z,6.48
2023-04-17T21:42:56.407Z,6.61
2023-04-17T21:46:05.070Z,6.64
2023-04-17T21:49:11.854Z,6.61
2023-04-17T21:52:18.180Z,6.54
2023-04-17T21:55:26.495Z,6.63
2023-04-17T21:58:32.986Z,6.59
2023-04-17T22:01:49.263Z,6.56
2023-04-17T22:04:55.542Z,6.60
2023-04-17T22:08:02.471Z,6.63
2023-04-17T22:11:08.637Z,6.67
2023-04-17T22:14:15.765Z,6.58
2023-04-17T22:17:24.387Z,6.49
2023-04-17T22:20:31.855Z,6.51
2023-04-17T22:23:37.769Z,6.49
2023-04-17T22:26:44.529Z,6.46
2023-04-17T22:29:50.493Z,6.42
2023-04-17T22:32:59.913Z,6.35
2023-04-17T22:36:05.921Z,6.37
2023-04-17T22:39:13.674Z,6.34
2023-04-17T22:43:01.703Z,6.37
2023-04-17T22:46:08.747Z,6.35
2023-04-17T22:49:17.744Z,6.35
2023-04-17T22:52:24.771Z,6.26
2023-04-17T22:55:30.860Z,6.26
2023-04-17T22:58:37.987Z,6.36
2023-04-17T23:01:43.977Z,6.28
2023-04-17T23:04:53.684Z,6.27
2023-04-17T23:07:59.613Z,6.29
2023-04-17T23:11:37.175Z,6.24
2023-04-17T23:14:43.769Z,6.17
2023-04-17T23:17:50.549Z,6.20
2023-04-17T23:20:59.281Z,6.21
2023-04-17T23:24:06.609Z,6.31
2023-04-17T23:27:12.748Z,6.31
2023-04-17T23:30:19.761Z,6.33
2023-04-17T23:33:25.733Z,6.33
2023-04-17T23:36:34.981Z,6.34
2023-04-17T23:39:40.989Z,6.42
2023-04-17T23:42:48.418Z,6.41
2023-04-17T23:45:54.238Z,6.42
2023-04-17T23:49:00.976Z,6.40
2023-04-17T23:52:09.601Z,6.42
2023-04-17T23:55:16.357Z,6.38
2023-04-17T23:58:22.534Z,6.37
